createdAt,value
2018-08-25T00:00:09.207Z,95.50
2018-08-25T00:02:36.704Z,95.30
2018-08-25T00:05:04.276Z,95.70
2018-08-25T00:07:31.753Z,95.30
2018-08-25T00:09:59.236Z,95.40
2018-08-25T00:12:26.695Z,95.10
2018-08-25T00:14:54.139Z,95.60
2018-08-25T00:17:21.651Z,95.60
2018-08-25T00:19:49.382Z,95.80
2018-08-25T00:22:18.270Z,95.40
2018-08-25T00:24:46.136Z,95.40
2018-08-25T00:27:13.617Z,95.30
2018-08-25T00:29:41.093Z,95.30
2018-08-25T00:32:08.639Z,95.30
2018-08-25T00:34:38.040Z,95.30
2018-08-25T00:37:05.757Z,95.20
2018-08-25T00:39:33.739Z,95.60
2018-08-25T00:42:01.164Z,95.40
2018-08-25T00:44:30.939Z,95.70
2018-08-25T00:46:58.459Z,95.60
2018-08-25T00:49:25.960Z,95.40
2018-08-25T00:51:53.477Z,95.50
2018-08-25T00:54:20.964Z,95.20
2018-08-25T00:56:48.387Z,95.30
2018-08-25T00:59:15.967Z,95.30
2018-08-25T01:01:43.540Z,95.40
2018-08-25T01:04:11.000Z,95.50
2018-08-25T01:06:38.521Z,95.30
2018-08-25T01:09:07.378Z,95.20
2018-08-25T01:11:34.788Z,95.50
2018-08-25T01:14:02.258Z,95.50
2018-08-25T01:16:29.744Z,95.80
2018-08-25T01:18:57.199Z,95.80
2018-08-25T01:21:24.720Z,95.80
2018-08-25T01:23:52.255Z,96.00
2018-08-25T01:26:19.671Z,95.80
2018-08-25T01:28:47.159Z,95.90
2018-08-25T01:31:14.662Z,96.00
2018-08-25T01:33:44.268Z,96.00
2018-08-25T01:36:12.064Z,96.00
2018-08-25T01:38:39.504Z,95.90
2018-08-25T01:41:06.940Z,96.10
2018-08-25T01:43:34.392Z,96.00
2018-08-25T01:46:01.796Z,96.40
2018-08-25T01:48:29.220Z,96.40
2018-08-25T01:50:56.773Z,96.60
2018-08-25T01:53:24.184Z,96.40
2018-08-25T01:55:51.710Z,96.60
2018-08-25T01:58:19.191Z,96.80
2018-08-25T02:00:46.596Z,96.80
2018-08-25T02:03:14.044Z,96.80
2018-08-25T02:05:41.550Z,96.80
2018-08-25T02:08:09.016Z,97.00
2018-08-25T02:10:36.506Z,97.00
2018-08-25T02:13:03.936Z,96.90
2018-08-25T02:15:31.355Z,96.50
2018-08-25T02:17:58.775Z,96.60
2018-08-25T02:20:27.207Z,96.70
2018-08-25T02:22:54.607Z,96.80
2018-08-25T02:25:22.053Z,96.90
2018-08-25T02:27:49.541Z,97.00
2018-08-25T02:30:17.015Z,97.00
2018-08-25T02:32:44.494Z,97.00
2018-08-25T02:35:12.006Z,97.00
2018-08-25T02:37:39.447Z,97.00
2018-08-25T02:40:06.991Z,97.40
2018-08-25T02:42:34.748Z,97.50
2018-08-25T02:45:02.234Z,97.50
2018-08-25T02:47:29.665Z,97.50
2018-08-25T02:49:57.150Z,97.60
2018-08-25T02:52:24.610Z,97.40
2018-08-25T02:54:52.058Z,97.60
2018-08-25T02:57:19.567Z,97.40
2018-08-25T02:59:47.172Z,97.60
2018-08-25T03:02:14.591Z,97.60
2018-08-25T03:04:42.183Z,97.70
2018-08-25T03:07:13.150Z,97.70
2018-08-25T03:09:40.604Z,97.80
2018-08-25T03:12:08.050Z,98.20
2018-08-25T03:14:38.572Z,98.10
2018-08-25T03:17:06.020Z,98.20
2018-08-25T03:19:33.418Z,98.50
2018-08-25T03:22:00.945Z,98.40
2018-08-25T03:24:28.468Z,98.50
2018-08-25T03:26:56.027Z,98.50
2018-08-25T03:29:23.456Z,98.60
2018-08-25T03:31:51.117Z,98.90
2018-08-25T03:34:18.546Z,99.00
2018-08-25T03:36:45.995Z,98.90
2018-08-25T03:39:13.413Z,99.20
2018-08-25T03:41:40.833Z,99.20
2018-08-25T03:44:09.216Z,99.10
2018-08-25T03:46:36.628Z,99.30
2018-08-25T03:49:04.134Z,99.30
2018-08-25T03:51:31.672Z,99.30
2018-08-25T03:53:59.117Z,99.30
2018-08-25T03:56:26.624Z,99.40
2018-08-25T03:58:54.012Z,99.50
2018-08-25T04:01:21.412Z,99.70
2018-08-25T04:03:48.844Z,99.60
2018-08-25T04:06:16.261Z,99.70
2018-08-25T04:08:43.702Z,99.70
2018-08-25T04:11:11.117Z,99.70
2018-08-25T04:13:38.547Z,99.70
2018-08-25T04:16:06.072Z,99.60
2018-08-25T04:18:33.695Z,99.60
2018-08-25T04:21:01.146Z,99.60
2018-08-25T04:23:28.562Z,99.60
2018-08-25T04:25:55.992Z,99.70
2018-08-25T04:28:23.488Z,99.60
2018-08-25T04:30:50.983Z,99.80
2018-08-25T04:33:18.476Z,99.60
2018-08-25T04:35:45.997Z,99.60
2018-08-25T04:38:13.552Z,99.70
2018-08-25T04:40:41.071Z,99.80
2018-08-25T04:43:08.511Z,99.70
2018-08-25T04:45:36.011Z,99.80
2018-08-25T04:48:03.618Z,99.60
2018-08-25T04:50:31.021Z,99.60
2018-08-25T04:52:58.540Z,99.60
2018-08-25T04:55:25.944Z,99.70
2018-08-25T04:57:53.367Z,99.70
2018-08-25T05:00:20.855Z,99.70
2018-08-25T05:02:48.442Z,99.90
2018-08-25T05:05:16.012Z,99.90
2018-08-25T05:07:43.483Z,99.90
2018-08-25T05:10:11.035Z,99.90
2018-08-25T05:12:38.567Z,99.90
2018-08-25T05:15:06.164Z,99.70
2018-08-25T05:17:33.731Z,99.90
2018-08-25T05:20:01.330Z,99.90
2018-08-25T05:22:28.728Z,99.90
2018-08-25T05:24:57.927Z,99.90
2018-08-25T05:27:25.469Z,99.90
2018-08-25T05:29:53.032Z,99.90
2018-08-25T05:32:24.322Z,99.90
2018-08-25T05:34:51.938Z,99.90
2018-08-25T05:37:19.513Z,99.90
2018-08-25T05:39:46.990Z,99.90
2018-08-25T05:42:14.485Z,99.90
2018-08-25T05:44:41.936Z,99.90
2018-08-25T05:47:09.367Z,99.90
2018-08-25T05:49:36.823Z,99.90
2018-08-25T05:52:04.340Z,99.90
2018-08-25T05:54:31.924Z,99.90
2018-08-25T05:56:59.393Z,99.90
2018-08-25T05:59:26.831Z,99.90
2018-08-25T06:01:54.365Z,99.90
2018-08-25T06:04:21.964Z,99.90
2018-08-25T06:06:49.444Z,99.90
2018-08-25T06:09:16.856Z,99.90
2018-08-25T06:11:44.323Z,99.90
2018-08-25T06:14:12.140Z,99.90
2018-08-25T06:16:39.706Z,99.90
2018-08-25T06:19:07.485Z,99.90
2018-08-25T06:21:34.923Z,99.90
2018-08-25T06:24:02.336Z,99.90
2018-08-25T06:26:29.803Z,99.90
2018-08-25T06:28:57.295Z,99.90
2018-08-25T06:31:24.747Z,99.90
2018-08-25T06:33:52.273Z,99.90
2018-08-25T06:36:19.852Z,99.90
2018-08-25T06:38:47.300Z,99.90
2018-08-25T06:41:14.829Z,99.90
2018-08-25T06:43:42.299Z,99.90
2018-08-25T06:46:09.947Z,99.90
2018-08-25T06:48:39.855Z,99.90
2018-08-25T06:51:07.579Z,99.90
2018-08-25T06:53:35.375Z,99.90
2018-08-25T06:56:02.890Z,99.90
2018-08-25T06:58:30.312Z,99.90
2018-08-25T07:00:57.799Z,99.90
2018-08-25T07:03:26.440Z,99.90
2018-08-25T07:05:54.957Z,99.90
2018-08-25T07:08:23.068Z,99.90
2018-08-25T07:10:50.527Z,99.90
2018-08-25T07:13:20.359Z,99.90
2018-08-25T07:15:49.493Z,99.90
2018-08-25T07:18:21.634Z,99.90
2018-08-25T07:20:49.438Z,99.90
2018-08-25T07:23:17.055Z,99.90
2018-08-25T07:25:54.332Z,99.90
2018-08-25T07:28:21.987Z,99.90
2018-08-25T07:30:49.613Z,99.90
2018-08-25T07:33:17.063Z,99.90
2018-08-25T07:35:45.621Z,99.90
2018-08-25T07:38:13.306Z,99.90
2018-08-25T07:40:40.815Z,99.90
2018-08-25T07:43:08.329Z,99.90
2018-08-25T07:45:36.499Z,99.90
2018-08-25T07:48:04.031Z,99.90
2018-08-25T07:50:31.703Z,99.90
2018-08-25T07:52:59.270Z,99.90
2018-08-25T07:55:26.901Z,99.90
2018-08-25T07:57:54.428Z,99.90
2018-08-25T08:00:22.241Z,99.90
2018-08-25T08:02:49.707Z,99.90
2018-08-25T08:05:18.738Z,99.90
2018-08-25T08:07:46.753Z,99.90
2018-08-25T08:10:14.312Z,99.90
2018-08-25T08:12:43.246Z,99.90
2018-08-25T08:15:14.187Z,99.90
2018-08-25T08:17:41.823Z,99.90
2018-08-25T08:20:09.772Z,99.90
2018-08-25T08:22:39.969Z,99.90
2018-08-25T08:25:07.680Z,99.90
2018-08-25T08:27:35.326Z,99.90
2018-08-25T08:30:03.155Z,99.90
2018-08-25T08:32:31.707Z,99.90
2018-08-25T08:35:00.243Z,99.90
2018-08-25T08:37:27.858Z,99.90
2018-08-25T08:39:55.312Z,99.90
2018-08-25T08:42:22.884Z,99.90
2018-08-25T08:44:50.530Z,99.90
2018-08-25T08:47:18.000Z,99.90
2018-08-25T08:49:47.114Z,99.90
2018-08-25T08:52:13.428Z,99.90
2018-08-25T08:54:40.900Z,99.90
2018-08-25T08:57:08.565Z,99.90
2018-08-25T08:59:36.188Z,99.90
2018-08-25T09:02:03.687Z,99.90
2018-08-25T09:04:31.217Z,99.90
2018-08-25T09:06:58.830Z,99.90
2018-08-25T09:09:26.298Z,99.90
2018-08-25T09:11:54.142Z,99.90
2018-08-25T09:14:21.871Z,99.90
2018-08-25T09:16:49.557Z,99.90
2018-08-25T09:19:21.869Z,99.90
2018-08-25T09:21:49.488Z,99.90
2018-08-25T09:24:17.051Z,99.90
2018-08-25T09:26:44.681Z,99.90
2018-08-25T09:29:12.314Z,99.90
2018-08-25T09:31:39.979Z,99.90
2018-08-25T09:34:07.520Z,99.90
2018-08-25T09:36:35.282Z,99.90
2018-08-25T09:39:03.848Z,99.90
2018-08-25T09:41:32.608Z,99.90
2018-08-25T09:44:00.242Z,99.90
2018-08-25T09:46:29.740Z,99.90
2018-08-25T09:48:57.329Z,99.90
2018-08-25T09:51:24.845Z,98.90
2018-08-25T09:53:52.469Z,99.20
2018-08-25T09:56:20.051Z,98.20
2018-08-25T09:58:47.555Z,97.90
2018-08-25T10:01:20.698Z,96.90
2018-08-25T10:03:48.338Z,96.30
2018-08-25T10:06:15.977Z,95.90
2018-08-25T10:08:43.808Z,95.30
2018-08-25T10:11:11.548Z,95.70
2018-08-25T10:13:39.116Z,95.80
2018-08-25T10:16:06.733Z,96.10
2018-08-25T10:18:34.356Z,96.20
2018-08-25T10:21:04.163Z,97.30
2018-08-25T10:23:31.669Z,97.40
2018-08-25T10:25:59.400Z,98.20
2018-08-25T10:28:26.916Z,97.20
2018-08-25T10:30:54.419Z,97.60
2018-08-25T10:33:21.973Z,96.80
2018-08-25T10:35:49.679Z,96.40
2018-08-25T10:38:17.220Z,95.30
2018-08-25T10:40:44.778Z,95.10
2018-08-25T10:43:12.535Z,94.60
2018-08-25T10:45:40.008Z,93.20
2018-08-25T10:48:07.747Z,92.30
2018-08-25T10:50:35.210Z,92.00
2018-08-25T10:53:02.819Z,90.80
2018-08-25T10:55:30.606Z,90.70
2018-08-25T10:57:58.192Z,90.70
2018-08-25T11:00:25.711Z,88.50
2018-08-25T11:02:53.098Z,88.30
2018-08-25T11:05:20.540Z,88.10
2018-08-25T11:07:47.985Z,88.00
2018-08-25T11:10:15.492Z,88.40
2018-08-25T11:12:43.092Z,86.60
2018-08-25T11:15:10.738Z,85.50
2018-08-25T11:17:38.523Z,88.00
2018-08-25T11:20:06.015Z,84.00
2018-08-25T11:22:33.464Z,84.00
2018-08-25T11:25:00.930Z,84.60
2018-08-25T11:27:28.379Z,84.70
2018-08-25T11:29:56.090Z,85.10
2018-08-25T11:32:24.427Z,87.80
2018-08-25T11:34:55.244Z,86.40
2018-08-25T11:37:24.124Z,85.10
2018-08-25T11:39:51.464Z,83.40
2018-08-25T11:42:19.369Z,79.50
2018-08-25T11:44:46.901Z,80.30
2018-08-25T11:47:15.623Z,80.20
2018-08-25T11:49:43.864Z,79.30
2018-08-25T11:52:11.509Z,75.50
2018-08-25T11:54:40.901Z,72.70
2018-08-25T11:57:08.632Z,72.20
2018-08-25T11:59:38.417Z,73.40
2018-08-25T12:02:06.132Z,72.90
2018-08-25T12:04:33.721Z,72.00
2018-08-25T12:07:01.291Z,71.70
2018-08-25T12:09:29.007Z,70.70
2018-08-25T12:11:57.223Z,69.20
2018-08-25T12:14:34.550Z,71.20
2018-08-25T12:17:02.035Z,69.80
2018-08-25T12:19:29.847Z,71.80
2018-08-25T12:21:57.320Z,72.90
2018-08-25T12:24:24.906Z,74.50
2018-08-25T12:26:54.025Z,77.00
2018-08-25T12:29:21.527Z,77.50
2018-08-25T12:31:49.010Z,80.20
2018-08-25T12:34:16.449Z,79.90
2018-08-25T12:36:43.920Z,77.20
2018-08-25T12:39:11.459Z,77.20
2018-08-25T12:41:38.856Z,77.60
2018-08-25T12:44:06.880Z,77.60
2018-08-25T12:46:34.405Z,75.40
2018-08-25T12:49:02.156Z,76.70
2018-08-25T12:51:30.289Z,76.70
2018-08-25T12:53:59.626Z,77.40
2018-08-25T12:56:27.564Z,75.00
2018-08-25T12:58:55.372Z,74.50
2018-08-25T13:01:24.175Z,74.90
2018-08-25T13:03:51.990Z,76.70
2018-08-25T13:06:20.607Z,79.50
2018-08-25T13:08:48.145Z,80.30
2018-08-25T13:11:16.115Z,79.20
2018-08-25T13:13:43.520Z,77.20
2018-08-25T13:16:11.003Z,75.70
2018-08-25T13:18:38.560Z,76.40
2018-08-25T13:21:07.424Z,78.20
2018-08-25T13:23:35.197Z,78.10
2018-08-25T13:26:02.615Z,78.20
2018-08-25T13:28:30.394Z,76.00
2018-08-25T13:30:58.212Z,73.80
2018-08-25T13:33:27.764Z,73.70
2018-08-25T13:35:55.458Z,74.50
2018-08-25T13:38:23.233Z,78.30
2018-08-25T13:40:51.751Z,77.40
2018-08-25T13:43:19.429Z,78.10
2018-08-25T13:45:46.874Z,78.10
2018-08-25T13:48:15.636Z,77.80
2018-08-25T13:50:43.206Z,76.70
2018-08-25T13:53:10.819Z,76.70
2018-08-25T13:55:38.491Z,76.80
2018-08-25T13:58:06.241Z,76.70
2018-08-25T14:00:33.820Z,76.90
2018-08-25T14:03:01.999Z,77.60
2018-08-25T14:05:30.790Z,76.80
2018-08-25T14:07:58.493Z,76.90
2018-08-25T14:10:26.224Z,75.00
2018-08-25T14:12:54.444Z,77.30
2018-08-25T14:15:23.284Z,77.50
2018-08-25T14:17:51.276Z,79.10
2018-08-25T14:20:18.872Z,80.30
2018-08-25T14:22:46.276Z,82.10
2018-08-25T14:25:13.748Z,81.60
2018-08-25T14:27:42.403Z,84.00
2018-08-25T14:30:11.539Z,84.00
2018-08-25T14:32:38.996Z,83.30
2018-08-25T14:35:06.485Z,80.80
2018-08-25T14:37:34.250Z,81.30
2018-08-25T14:40:01.696Z,82.70
2018-08-25T14:42:29.155Z,84.20
2018-08-25T14:44:57.213Z,84.10
2018-08-25T14:47:24.788Z,83.90
2018-08-25T14:49:52.167Z,84.60
2018-08-25T14:52:19.715Z,85.00
2018-08-25T14:54:47.243Z,84.80
2018-08-25T14:57:15.012Z,85.20
2018-08-25T14:59:43.006Z,84.80
2018-08-25T15:02:10.887Z,85.10
2018-08-25T15:04:38.506Z,84.20
2018-08-25T15:07:06.072Z,84.50
2018-08-25T15:09:33.556Z,85.40
2018-08-25T15:12:01.295Z,85.50
2018-08-25T15:14:32.400Z,84.80
2018-08-25T15:17:00.275Z,85.00
2018-08-25T15:19:30.895Z,85.20
2018-08-25T15:21:58.448Z,84.00
2018-08-25T15:24:25.959Z,84.60
2018-08-25T15:26:53.737Z,86.10
2018-08-25T15:29:21.223Z,86.30
2018-08-25T15:31:50.544Z,86.70
2018-08-25T15:34:18.013Z,86.30
2018-08-25T15:36:45.687Z,84.50
2018-08-25T15:39:14.009Z,84.80
2018-08-25T15:41:41.867Z,85.20
2018-08-25T15:44:09.399Z,85.40
2018-08-25T15:46:36.897Z,85.60
2018-08-25T15:49:04.695Z,84.50
2018-08-25T15:51:32.505Z,84.60
2018-08-25T15:54:00.023Z,83.90
2018-08-25T15:56:29.760Z,84.90
2018-08-25T15:58:57.299Z,84.90
2018-08-25T16:01:24.808Z,85.20
2018-08-25T16:03:52.336Z,85.10
2018-08-25T16:06:19.863Z,84.60
2018-08-25T16:08:48.477Z,84.50
2018-08-25T16:11:16.210Z,84.50
2018-08-25T16:13:44.287Z,84.70
2018-08-25T16:16:11.949Z,84.20
2018-08-25T16:18:39.427Z,84.50
2018-08-25T16:21:06.916Z,84.70
2018-08-25T16:23:34.594Z,86.00
2018-08-25T16:26:02.323Z,84.20
2018-08-25T16:28:29.776Z,83.50
2018-08-25T16:30:57.236Z,85.40
2018-08-25T16:33:24.825Z,84.40
2018-08-25T16:35:52.248Z,86.70
2018-08-25T16:38:19.872Z,85.70
2018-08-25T16:40:47.328Z,87.00
2018-08-25T16:43:15.065Z,86.00
2018-08-25T16:45:42.769Z,84.30
2018-08-25T16:48:10.261Z,84.20
2018-08-25T16:50:37.831Z,85.40
2018-08-25T16:53:05.356Z,85.00
2018-08-25T16:55:33.017Z,85.00
2018-08-25T16:58:00.499Z,85.80
2018-08-25T17:00:28.019Z,86.90
2018-08-25T17:02:56.059Z,88.10
2018-08-25T17:05:23.771Z,87.40
2018-08-25T17:07:51.557Z,88.50
2018-08-25T17:10:19.550Z,89.10
2018-08-25T17:12:49.553Z,88.70
2018-08-25T17:15:17.189Z,87.80
2018-08-25T17:17:45.022Z,87.40
2018-08-25T17:20:15.224Z,85.10
2018-08-25T17:22:44.335Z,85.20
2018-08-25T17:25:12.387Z,85.50
2018-08-25T17:27:40.801Z,85.50
2018-08-25T17:30:09.697Z,86.30
2018-08-25T17:32:37.764Z,86.40
2018-08-25T17:35:06.428Z,86.40
2018-08-25T17:37:35.042Z,87.30
2018-08-25T17:40:02.607Z,86.60
2018-08-25T17:42:31.724Z,86.90
2018-08-25T17:45:00.551Z,88.50
2018-08-25T17:47:28.084Z,89.10
2018-08-25T17:49:57.752Z,89.40
2018-08-25T17:52:27.022Z,89.60
2018-08-25T17:54:54.840Z,90.00
2018-08-25T17:57:23.514Z,90.30
2018-08-25T17:59:51.122Z,91.40
2018-08-25T18:02:18.595Z,90.90
2018-08-25T18:04:46.156Z,90.40
2018-08-25T18:07:13.632Z,91.60
2018-08-25T18:09:41.183Z,91.00
2018-08-25T18:12:15.679Z,91.70
2018-08-25T18:14:44.808Z,91.60
2018-08-25T18:17:13.923Z,91.00
2018-08-25T18:19:42.102Z,92.50
2018-08-25T18:22:09.784Z,93.10
2018-08-25T18:24:37.667Z,93.30
2018-08-25T18:27:05.164Z,93.70
2018-08-25T18:29:33.364Z,93.90
2018-08-25T18:32:02.193Z,94.00
2018-08-25T18:34:30.493Z,94.10
2018-08-25T18:36:58.072Z,94.30
2018-08-25T18:39:26.239Z,94.40
2018-08-25T18:41:53.955Z,94.50
2018-08-25T18:44:22.201Z,94.70
2018-08-25T18:46:50.363Z,94.80
2018-08-25T18:49:18.546Z,94.90
2018-08-25T18:51:46.157Z,94.90
2018-08-25T18:54:13.974Z,95.00
2018-08-25T18:56:42.215Z,94.90
2018-08-25T18:59:10.871Z,95.10
2018-08-25T19:01:38.527Z,95.20
2018-08-25T19:04:06.665Z,95.20
2018-08-25T19:06:34.163Z,95.30
2018-08-25T19:09:02.031Z,95.40
2018-08-25T19:11:30.187Z,95.50
2018-08-25T19:13:57.984Z,95.40
2018-08-25T19:16:26.786Z,95.30
2018-08-25T19:18:58.033Z,95.40
2018-08-25T19:21:25.648Z,95.60
2018-08-25T19:23:53.255Z,95.60
2018-08-25T19:26:21.502Z,95.70
2018-08-25T19:28:49.873Z,95.70
2018-08-25T19:31:18.913Z,95.50
2018-08-25T19:33:46.500Z,95.80
2018-08-25T19:36:14.015Z,95.70
2018-08-25T19:38:41.551Z,95.70
2018-08-25T19:41:11.011Z,95.80
2018-08-25T19:43:39.564Z,95.80
2018-08-25T19:46:07.323Z,95.70
2018-08-25T19:48:36.020Z,95.70
2018-08-25T19:51:04.358Z,95.70
2018-08-25T19:53:31.762Z,95.60
2018-08-25T19:56:00.638Z,95.50
2018-08-25T19:58:29.221Z,95.70
2018-08-25T20:00:56.779Z,95.80
2018-08-25T20:03:25.464Z,95.60
2018-08-25T20:05:52.977Z,95.30
2018-08-25T20:08:20.745Z,95.40
2018-08-25T20:10:49.074Z,95.50
2018-08-25T20:13:17.310Z,95.50
2018-08-25T20:15:45.184Z,95.60
2018-08-25T20:18:12.634Z,95.70
2018-08-25T20:20:40.584Z,95.40
2018-08-25T20:23:08.617Z,95.50
2018-08-25T20:25:36.457Z,95.80
2018-08-25T20:28:04.940Z,95.90
2018-08-25T20:30:32.860Z,95.80
2018-08-25T20:33:00.813Z,95.80
2018-08-25T20:35:28.385Z,95.90
2018-08-25T20:37:56.455Z,96.10
2018-08-25T20:40:24.978Z,96.00
2018-08-25T20:42:52.596Z,96.00
2018-08-25T20:45:20.555Z,96.10
2018-08-25T20:47:48.663Z,96.20
2018-08-25T20:50:16.317Z,96.00
2018-08-25T20:52:44.450Z,96.10
2018-08-25T20:55:12.519Z,96.30
2018-08-25T20:57:40.211Z,96.30
2018-08-25T21:00:08.584Z,96.50
2018-08-25T21:02:36.543Z,96.30
2018-08-25T21:05:05.468Z,96.30
2018-08-25T21:07:37.222Z,96.40
2018-08-25T21:10:06.342Z,96.40
2018-08-25T21:12:34.576Z,96.40
2018-08-25T21:15:02.362Z,96.40
2018-08-25T21:17:30.581Z,96.50
2018-08-25T21:19:58.394Z,96.50
2018-08-25T21:22:26.008Z,96.50
2018-08-25T21:24:53.936Z,96.50
2018-08-25T21:27:21.560Z,96.50
2018-08-25T21:29:49.146Z,96.60
2018-08-25T21:32:17.258Z,96.60
2018-08-25T21:34:44.720Z,96.60
2018-08-25T21:37:13.207Z,96.70
2018-08-25T21:39:40.659Z,96.70
2018-08-25T21:42:08.107Z,96.70
2018-08-25T21:44:35.550Z,96.90
2018-08-25T21:47:03.085Z,96.80
2018-08-25T21:49:30.695Z,96.90
2018-08-25T21:51:58.378Z,96.90
2018-08-25T21:54:25.848Z,96.90
2018-08-25T21:56:53.365Z,97.00
2018-08-25T21:59:20.836Z,96.80
2018-08-25T22:01:53.956Z,96.80
2018-08-25T22:04:21.708Z,96.80
2018-08-25T22:06:49.412Z,96.80
2018-08-25T22:09:18.235Z,96.70
2018-08-25T22:11:46.128Z,96.60
2018-08-25T22:14:19.053Z,96.70
2018-08-25T22:16:48.946Z,96.90
2018-08-25T22:19:21.693Z,97.10
2018-08-25T22:22:09.960Z,97.30
2018-08-25T22:24:38.918Z,97.40
2018-08-25T22:27:06.997Z,97.50
2018-08-25T22:29:36.705Z,97.60
2018-08-25T22:32:06.175Z,97.60
2018-08-25T22:34:37.768Z,97.60
2018-08-25T22:39:43.952Z,97.70
2018-08-25T22:42:22.422Z,97.80
2018-08-25T22:44:51.087Z,97.80
2018-08-25T22:47:21.575Z,97.90
2018-08-25T22:49:49.048Z,97.90
2018-08-25T22:52:20.891Z,97.80
2018-08-25T22:54:48.372Z,97.80
2018-08-25T22:57:15.845Z,97.90
2018-08-25T22:59:43.279Z,98.00
2018-08-25T23:02:10.916Z,98.20
2018-08-25T23:04:38.398Z,98.20
2018-08-25T23:07:05.963Z,98.30
2018-08-25T23:09:33.662Z,98.30
2018-08-25T23:12:01.169Z,98.40
2018-08-25T23:14:28.691Z,98.50
2018-08-25T23:16:56.228Z,98.60
2018-08-25T23:19:23.685Z,98.30
2018-08-25T23:21:51.157Z,98.40
2018-08-25T23:24:18.589Z,98.40
2018-08-25T23:26:46.135Z,98.50
2018-08-25T23:29:13.613Z,98.50
2018-08-25T23:31:41.028Z,98.60
2018-08-25T23:34:08.605Z,98.50
2018-08-25T23:36:36.289Z,98.60
2018-08-25T23:39:05.799Z,98.70
2018-08-25T23:41:33.227Z,98.80
2018-08-25T23:44:00.671Z,98.80
2018-08-25T23:46:28.142Z,98.90
2018-08-25T23:48:55.579Z,98.90
2018-08-25T23:51:23.105Z,99.00
2018-08-25T23:53:50.665Z,99.00
2018-08-25T23:56:18.199Z,99.00
2018-08-25T23:58:45.671Z,98.90
